createdAt,value
2019-02-21T00:01:06.057Z,101155.00
2019-02-21T00:03:39.018Z,101158.00
2019-02-21T00:06:11.824Z,101152.00
2019-02-21T00:08:44.788Z,101146.00
2019-02-21T00:11:17.638Z,101153.00
2019-02-21T00:13:50.477Z,101155.00
2019-02-21T00:16:23.297Z,101156.00
2019-02-21T00:18:56.116Z,101158.00
2019-02-21T00:21:28.962Z,101158.00
2019-02-21T00:24:01.776Z,101162.00
2019-02-21T00:26:34.641Z,101166.00
2019-02-21T00:29:07.471Z,101161.00
2019-02-21T00:31:40.406Z,101163.00
2019-02-21T00:34:13.267Z,101169.00
2019-02-21T00:36:46.132Z,101169.00
2019-02-21T00:39:18.979Z,101165.00
2019-02-21T00:41:51.799Z,101160.00
2019-02-21T00:44:24.657Z,101165.00
2019-02-21T00:46:57.478Z,101165.00
2019-02-21T00:49:30.289Z,101158.00
2019-02-21T00:52:03.090Z,101157.00
2019-02-21T00:54:35.902Z,101165.00
2019-02-21T00:57:08.728Z,101164.00
2019-02-21T00:59:41.566Z,101159.00
2019-02-21T01:02:15.380Z,101151.00
2019-02-21T01:04:48.199Z,101155.00
2019-02-21T01:07:20.983Z,101162.00
2019-02-21T01:09:53.788Z,101162.00
2019-02-21T01:12:26.604Z,101164.00
2019-02-21T01:14:59.669Z,101164.00
2019-02-21T01:17:32.459Z,101172.00
2019-02-21T01:20:05.937Z,101174.00
2019-02-21T01:22:38.827Z,101176.00
2019-02-21T01:25:11.622Z,101174.00
2019-02-21T01:27:44.435Z,101173.00
2019-02-21T01:30:17.270Z,101173.00
2019-02-21T01:32:50.087Z,101179.00
2019-02-21T01:35:22.878Z,101180.00
2019-02-21T01:37:55.700Z,101178.00
2019-02-21T01:40:29.649Z,101173.00
2019-02-21T01:43:02.436Z,101172.00
2019-02-21T01:45:35.256Z,101176.00
2019-02-21T01:48:08.042Z,101175.00
2019-02-21T01:50:40.861Z,101188.00
2019-02-21T01:53:13.681Z,101171.00
2019-02-21T01:55:46.531Z,101181.00
2019-02-21T01:58:19.343Z,101176.00
2019-02-21T02:00:52.193Z,101173.00
2019-02-21T02:03:25.006Z,101178.00
2019-02-21T02:05:58.886Z,101180.00
2019-02-21T02:08:31.967Z,101185.00
2019-02-21T02:11:04.897Z,101171.00
2019-02-21T02:13:37.703Z,101169.00
2019-02-21T02:16:10.522Z,101171.00
2019-02-21T02:18:43.316Z,101172.00
2019-02-21T02:21:16.130Z,101182.00
2019-02-21T02:23:48.937Z,101183.00
2019-02-21T02:26:22.858Z,101191.00
2019-02-21T02:28:55.652Z,101189.00
2019-02-21T02:31:28.490Z,101198.00
2019-02-21T02:34:01.778Z,101201.00
2019-02-21T02:36:34.602Z,101192.00
2019-02-21T02:39:07.829Z,101200.00
2019-02-21T02:41:40.974Z,101202.00
2019-02-21T02:44:13.770Z,101196.00
2019-02-21T02:46:46.600Z,101192.00
2019-02-21T02:49:19.405Z,101189.00
2019-02-21T02:51:52.237Z,101193.00
2019-02-21T02:54:25.050Z,101193.00
2019-02-21T02:56:57.925Z,101197.00
2019-02-21T02:59:40.244Z,101187.00
2019-02-21T03:02:05.449Z,101187.00
2019-02-21T03:04:38.272Z,101191.00
2019-02-21T03:07:11.073Z,101206.00
2019-02-21T03:09:43.890Z,101215.00
2019-02-21T03:12:16.719Z,101216.00
2019-02-21T03:14:49.586Z,101209.00
2019-02-21T03:17:22.330Z,101210.00
2019-02-21T03:19:55.124Z,101215.00
2019-02-21T03:22:27.932Z,101222.00
2019-02-21T03:25:00.914Z,101213.00
2019-02-21T03:27:33.707Z,101218.00
2019-02-21T03:30:11.942Z,101208.00
2019-02-21T03:32:42.263Z,101219.00
2019-02-21T03:35:15.098Z,101218.00
2019-02-21T03:37:47.879Z,101207.00
2019-02-21T03:40:20.689Z,101224.00
2019-02-21T03:42:53.494Z,101219.00
2019-02-21T03:45:26.349Z,101221.00
2019-02-21T03:47:59.141Z,101230.00
2019-02-21T03:50:31.959Z,101222.00
2019-02-21T03:53:04.779Z,101227.00
2019-02-21T03:55:37.626Z,101214.00
2019-02-21T03:58:10.414Z,101215.00
2019-02-21T04:00:43.206Z,101213.00
2019-02-21T04:03:15.991Z,101211.00
2019-02-21T04:05:48.826Z,101211.00
2019-02-21T04:08:22.619Z,101209.00
2019-02-21T04:10:55.471Z,101215.00
2019-02-21T04:13:28.302Z,101210.00
2019-02-21T04:16:01.116Z,101218.00
2019-02-21T04:18:33.920Z,101216.00
2019-02-21T04:21:06.703Z,101211.00
2019-02-21T04:23:39.510Z,101206.00
2019-02-21T04:26:12.522Z,101206.00
2019-02-21T04:28:45.892Z,101197.00
2019-02-21T04:31:18.851Z,101210.00
2019-02-21T04:33:51.661Z,101217.00
2019-02-21T04:36:24.466Z,101201.00
2019-02-21T04:38:57.282Z,101202.00
2019-02-21T04:41:30.087Z,101194.00
2019-02-21T04:44:03.892Z,101201.00
2019-02-21T04:46:37.046Z,101204.00
2019-02-21T04:49:09.848Z,101203.00
2019-02-21T04:51:42.732Z,101203.00
2019-02-21T04:54:15.543Z,101206.00
2019-02-21T04:56:48.397Z,101197.00
2019-02-21T04:59:21.199Z,101201.00
2019-02-21T05:01:54.010Z,101207.00
2019-02-21T05:04:26.918Z,101206.00
2019-02-21T05:07:00.831Z,101212.00
2019-02-21T05:09:33.642Z,101211.00
2019-02-21T05:12:06.473Z,101220.00
2019-02-21T05:14:39.257Z,101211.00
2019-02-21T05:17:12.078Z,101215.00
2019-02-21T05:19:44.879Z,101214.00
2019-02-21T05:22:17.694Z,101216.00
2019-02-21T05:24:50.496Z,101219.00
2019-02-21T05:27:27.362Z,101214.00
2019-02-21T05:30:00.354Z,101222.00
2019-02-21T05:32:52.849Z,101224.00
2019-02-21T05:35:37.696Z,101215.00
2019-02-21T05:38:32.694Z,101215.00
2019-02-21T05:41:21.114Z,101223.00
2019-02-21T05:44:16.150Z,101226.00
2019-02-21T05:47:11.219Z,101220.00
2019-02-21T05:49:51.917Z,101221.00
2019-02-21T05:52:40.419Z,101227.00
2019-02-21T05:55:24.974Z,101223.00
2019-02-21T05:58:08.971Z,101221.00
2019-02-21T06:01:03.886Z,101223.00
2019-02-21T06:03:51.110Z,101221.00
2019-02-21T06:06:48.763Z,101221.00
2019-02-21T06:09:41.206Z,101215.00
2019-02-21T06:12:33.186Z,101227.00
2019-02-21T06:15:29.698Z,101220.00
2019-02-21T06:18:20.743Z,101213.00
2019-02-21T06:21:12.930Z,101226.00
2019-02-21T06:24:08.165Z,101216.00
2019-02-21T06:27:00.990Z,101226.00
2019-02-21T06:29:42.288Z,101214.00
2019-02-21T06:32:15.081Z,101226.00
2019-02-21T06:34:47.925Z,101234.00
2019-02-21T06:37:20.764Z,101242.00
2019-02-21T06:39:53.576Z,101241.00
2019-02-21T06:42:26.445Z,101241.00
2019-02-21T06:44:59.227Z,101241.00
2019-02-21T06:47:32.076Z,101233.00
2019-02-21T06:50:05.289Z,101243.00
2019-02-21T06:52:40.502Z,101236.00
2019-02-21T06:55:12.857Z,101237.00
2019-02-21T06:57:45.710Z,101245.00
2019-02-21T07:00:18.519Z,101249.00
2019-02-21T07:02:51.391Z,101252.00
2019-02-21T07:05:24.191Z,101248.00
2019-02-21T07:07:57.041Z,101253.00
2019-02-21T07:10:29.828Z,101256.00
2019-02-21T07:13:02.732Z,101256.00
2019-02-21T07:15:35.545Z,101255.00
2019-02-21T07:18:11.025Z,101257.00
2019-02-21T07:20:44.340Z,101253.00
2019-02-21T07:23:17.199Z,101252.00
2019-02-21T07:26:09.618Z,101245.00
2019-02-21T07:28:42.468Z,101257.00
2019-02-21T07:31:15.242Z,101252.00
2019-02-21T07:33:48.439Z,101269.00
2019-02-21T07:36:21.318Z,101275.00
2019-02-21T07:39:08.351Z,101281.00
2019-02-21T07:41:28.892Z,101292.00
2019-02-21T07:44:11.744Z,101304.00
2019-02-21T07:46:36.503Z,101305.00
2019-02-21T07:49:09.384Z,101315.00
2019-02-21T07:51:43.314Z,101315.00
2019-02-21T07:54:16.118Z,101318.00
2019-02-21T07:56:48.936Z,101328.00
2019-02-21T07:59:21.772Z,101335.00
2019-02-21T08:01:54.596Z,101334.00
2019-02-21T08:04:27.430Z,101339.00
2019-02-21T08:07:00.226Z,101334.00
2019-02-21T08:09:33.079Z,101334.00
2019-02-21T08:12:05.902Z,101337.00
2019-02-21T08:14:38.746Z,101331.00
2019-02-21T08:17:11.685Z,101343.00
2019-02-21T08:19:44.533Z,101346.00
2019-02-21T08:22:17.349Z,101346.00
2019-02-21T08:24:50.195Z,101348.00
2019-02-21T08:27:23.038Z,101357.00
2019-02-21T08:29:55.834Z,101346.00
2019-02-21T08:32:33.287Z,101350.00
2019-02-21T08:35:06.954Z,101349.00
2019-02-21T08:37:39.941Z,101351.00
2019-02-21T08:40:12.765Z,101352.00
2019-02-21T08:42:45.637Z,101347.00
2019-02-21T08:45:18.488Z,101346.00
2019-02-21T08:47:51.304Z,101345.00
2019-02-21T08:50:24.160Z,101351.00
2019-02-21T08:52:56.975Z,101351.00
2019-02-21T08:55:29.823Z,101349.00
2019-02-21T08:58:02.708Z,101359.00
2019-02-21T09:00:35.587Z,101361.00
2019-02-21T09:03:08.382Z,101361.00
2019-02-21T09:05:41.218Z,101352.00
2019-02-21T09:08:16.535Z,101350.00
2019-02-21T09:10:48.735Z,101362.00
2019-02-21T09:13:23.768Z,101359.00
2019-02-21T09:15:56.344Z,101352.00
2019-02-21T09:18:29.166Z,101373.00
2019-02-21T09:21:01.983Z,101370.00
2019-02-21T09:23:34.835Z,101370.00
2019-02-21T09:26:07.705Z,101374.00
2019-02-21T09:28:40.553Z,101389.00
2019-02-21T09:31:13.424Z,101380.00
2019-02-21T09:33:46.348Z,101383.00
2019-02-21T09:36:19.162Z,101386.00
2019-02-21T09:38:51.993Z,101381.00
2019-02-21T09:41:24.817Z,101390.00
2019-02-21T09:43:57.752Z,101383.00
2019-02-21T09:46:30.617Z,101384.00
2019-02-21T09:49:03.487Z,101373.00
2019-02-21T09:51:36.725Z,101379.00
2019-02-21T09:54:09.565Z,101378.00
2019-02-21T09:56:52.302Z,101376.00
2019-02-21T09:59:17.159Z,101387.00
2019-02-21T10:01:50.029Z,101388.00
2019-02-21T10:04:31.911Z,101397.00
2019-02-21T10:06:57.571Z,101389.00
2019-02-21T10:09:30.373Z,101383.00
2019-02-21T10:12:03.225Z,101382.00
2019-02-21T10:14:36.064Z,101382.00
2019-02-21T10:17:08.890Z,101379.00
2019-02-21T10:19:41.703Z,101382.00
2019-02-21T10:22:14.526Z,101375.00
2019-02-21T10:24:47.338Z,101375.00
2019-02-21T10:27:20.175Z,101379.00
2019-02-21T10:29:53.114Z,101387.00
2019-02-21T10:32:25.931Z,101386.00
2019-02-21T10:34:58.751Z,101395.00
2019-02-21T10:37:31.592Z,101397.00
2019-02-21T10:40:06.050Z,101396.00
2019-02-21T10:42:38.868Z,101400.00
2019-02-21T10:45:15.141Z,101387.00
2019-02-21T10:47:47.945Z,101403.00
2019-02-21T10:50:20.880Z,101401.00
2019-02-21T10:52:53.783Z,101407.00
2019-02-21T10:55:26.620Z,101401.00
2019-02-21T10:57:59.547Z,101397.00
2019-02-21T11:00:32.445Z,101407.00
2019-02-21T11:03:05.444Z,101414.00
2019-02-21T11:05:38.258Z,101401.00
2019-02-21T11:08:11.079Z,101402.00
2019-02-21T11:10:43.893Z,101386.00
2019-02-21T11:13:16.731Z,101400.00
2019-02-21T11:15:50.717Z,101396.00
2019-02-21T11:18:23.519Z,101410.00
2019-02-21T11:20:56.346Z,101402.00
2019-02-21T11:23:29.165Z,101386.00
2019-02-21T11:26:02.253Z,101390.00
2019-02-21T11:28:35.068Z,101398.00
2019-02-21T11:31:08.891Z,101390.00
2019-02-21T11:33:41.715Z,101391.00
2019-02-21T11:36:14.551Z,101390.00
2019-02-21T11:38:47.379Z,101380.00
2019-02-21T11:41:20.183Z,101388.00
2019-02-21T11:43:53.007Z,101387.00
2019-02-21T11:46:25.837Z,101390.00
2019-02-21T11:48:58.641Z,101386.00
2019-02-21T11:51:31.486Z,101371.00
2019-02-21T11:54:04.291Z,101380.00
2019-02-21T11:56:37.109Z,101371.00
2019-02-21T11:59:11.056Z,101368.00
2019-02-21T12:01:43.919Z,101368.00
2019-02-21T12:04:16.850Z,101359.00
2019-02-21T12:06:49.645Z,101364.00
2019-02-21T12:09:22.475Z,101360.00
2019-02-21T12:11:55.297Z,101357.00
2019-02-21T12:14:28.108Z,101363.00
2019-02-21T12:17:00.926Z,101344.00
2019-02-21T12:19:33.777Z,101347.00
2019-02-21T12:22:06.658Z,101348.00
2019-02-21T12:24:39.461Z,101341.00
2019-02-21T12:27:12.307Z,101335.00
2019-02-21T12:29:45.124Z,101329.00
2019-02-21T12:32:17.998Z,101318.00
2019-02-21T12:34:50.810Z,101307.00
2019-02-21T12:37:23.672Z,101308.00
2019-02-21T12:39:56.482Z,101314.00
2019-02-21T12:42:29.395Z,101314.00
2019-02-21T12:45:02.215Z,101315.00
2019-02-21T12:47:36.296Z,101321.00
2019-02-21T12:50:09.268Z,101344.00
2019-02-21T12:52:42.134Z,101342.00
2019-02-21T12:55:26.495Z,101337.00
2019-02-21T12:57:49.747Z,101336.00
2019-02-21T13:00:22.634Z,101334.00
2019-02-21T13:02:55.481Z,101341.00
2019-02-21T13:05:28.384Z,101325.00
2019-02-21T13:08:01.231Z,101338.00
2019-02-21T13:10:34.982Z,101340.00
2019-02-21T13:13:07.999Z,101347.00
2019-02-21T13:15:40.798Z,101351.00
2019-02-21T13:18:16.132Z,101342.00
2019-02-21T13:20:48.450Z,101344.00
2019-02-21T13:23:21.595Z,101337.00
2019-02-21T13:25:54.418Z,101336.00
2019-02-21T13:28:27.258Z,101333.00
2019-02-21T13:31:00.122Z,101325.00
2019-02-21T13:33:32.898Z,101333.00
2019-02-21T13:36:06.244Z,101330.00
2019-02-21T13:38:39.104Z,101323.00
2019-02-21T13:41:11.920Z,101322.00
2019-02-21T13:43:44.776Z,101327.00
2019-02-21T13:46:18.806Z,101324.00
2019-02-21T13:48:51.691Z,101314.00
2019-02-21T13:51:24.465Z,101324.00
2019-02-21T13:53:57.309Z,101324.00
2019-02-21T13:56:30.175Z,101332.00
2019-02-21T13:59:03.024Z,101323.00
2019-02-21T14:01:35.907Z,101324.00
2019-02-21T14:04:08.791Z,101308.00
2019-02-21T14:06:41.633Z,101301.00
2019-02-21T14:09:14.546Z,101311.00
2019-02-21T14:11:47.359Z,101304.00
2019-02-21T14:14:20.265Z,101316.00
2019-02-21T14:16:53.106Z,101313.00
2019-02-21T14:19:25.973Z,101320.00
2019-02-21T14:21:58.830Z,101309.00
2019-02-21T14:24:36.946Z,101305.00
2019-02-21T14:27:08.730Z,101302.00
2019-02-21T14:29:41.247Z,101312.00
2019-02-21T14:32:14.056Z,101302.00
2019-02-21T14:34:46.887Z,101307.00
2019-02-21T14:37:19.704Z,101303.00
2019-02-21T14:39:52.549Z,101297.00
2019-02-21T14:42:25.374Z,101302.00
2019-02-21T14:44:58.197Z,101301.00
2019-02-21T14:47:31.023Z,101298.00
2019-02-21T14:50:05.701Z,101296.00
2019-02-21T14:52:38.597Z,101293.00
2019-02-21T14:55:12.967Z,101291.00
2019-02-21T14:57:45.800Z,101291.00
2019-02-21T15:00:20.487Z,101289.00
2019-02-21T15:02:54.409Z,101291.00
2019-02-21T15:05:27.280Z,101285.00
2019-02-21T15:08:00.149Z,101296.00
2019-02-21T15:10:32.972Z,101289.00
2019-02-21T15:13:05.948Z,101293.00
2019-02-21T15:15:38.798Z,101282.00
2019-02-21T15:18:11.658Z,101286.00
2019-02-21T15:20:44.503Z,101279.00
2019-02-21T15:23:17.459Z,101278.00
2019-02-21T15:25:50.287Z,101283.00
2019-02-21T15:28:23.289Z,101293.00
2019-02-21T15:30:56.128Z,101298.00
2019-02-21T15:33:28.962Z,101300.00
2019-02-21T15:36:01.785Z,101302.00
2019-02-21T15:38:34.758Z,101301.00
2019-02-21T15:41:07.566Z,101299.00
2019-02-21T15:43:40.430Z,101314.00
2019-02-21T15:46:13.277Z,101307.00
2019-02-21T15:48:46.066Z,101310.00
2019-02-21T15:51:18.972Z,101312.00
2019-02-21T15:53:52.006Z,101304.00
2019-02-21T15:56:24.856Z,101309.00
2019-02-21T15:58:57.756Z,101303.00
2019-02-21T16:01:30.564Z,101300.00
2019-02-21T16:04:03.383Z,101311.00
2019-02-21T16:06:38.052Z,101308.00
2019-02-21T16:09:16.231Z,101314.00
2019-02-21T16:11:45.831Z,101312.00
2019-02-21T16:14:18.633Z,101319.00
2019-02-21T16:16:51.529Z,101315.00
2019-02-21T16:19:24.412Z,101313.00
2019-02-21T16:21:57.310Z,101315.00
2019-02-21T16:24:30.100Z,101316.00
2019-02-21T16:27:02.918Z,101321.00
2019-02-21T16:29:35.808Z,101328.00
2019-02-21T16:32:08.624Z,101327.00
2019-02-21T16:34:41.495Z,101331.00
2019-02-21T16:37:14.435Z,101319.00
2019-02-21T16:39:47.394Z,101324.00
2019-02-21T16:42:20.236Z,101325.00
2019-02-21T16:44:53.133Z,101336.00
2019-02-21T16:47:25.975Z,101338.00
2019-02-21T16:49:58.845Z,101339.00
2019-02-21T16:52:31.826Z,101343.00
2019-02-21T16:55:08.725Z,101339.00
2019-02-21T16:57:41.332Z,101356.00
2019-02-21T17:00:16.046Z,101334.00
2019-02-21T17:02:49.001Z,101340.00
2019-02-21T17:05:21.930Z,101346.00
2019-02-21T17:07:54.823Z,101348.00
2019-02-21T17:10:27.698Z,101347.00
2019-02-21T17:13:00.637Z,101356.00
2019-02-21T17:15:33.499Z,101358.00
2019-02-21T17:18:06.387Z,101370.00
2019-02-21T17:20:39.311Z,101377.00
2019-02-21T17:23:22.239Z,101373.00
2019-02-21T17:25:46.974Z,101378.00
2019-02-21T17:28:19.832Z,101378.00
2019-02-21T17:30:52.694Z,101375.00
2019-02-21T17:33:25.606Z,101375.00
2019-02-21T17:35:58.452Z,101385.00
2019-02-21T17:38:31.303Z,101382.00
2019-02-21T17:41:04.211Z,101385.00
2019-02-21T17:43:37.116Z,101384.00
2019-02-21T17:46:10.045Z,101393.00
2019-02-21T17:48:42.883Z,101392.00
2019-02-21T17:51:15.745Z,101396.00
2019-02-21T17:53:48.636Z,101395.00
2019-02-21T17:56:21.540Z,101399.00
2019-02-21T17:58:54.405Z,101402.00
2019-02-21T18:01:27.329Z,101407.00
2019-02-21T18:04:00.311Z,101402.00
2019-02-21T18:06:33.247Z,101393.00
2019-02-21T18:09:07.029Z,101397.00
2019-02-21T18:11:40.995Z,101397.00
2019-02-21T18:14:13.864Z,101406.00
2019-02-21T18:16:46.687Z,101404.00
2019-02-21T18:19:19.740Z,101402.00
2019-02-21T18:21:52.621Z,101411.00
2019-02-21T18:24:25.556Z,101397.00
2019-02-21T18:26:58.488Z,101404.00
2019-02-21T18:29:31.390Z,101400.00
2019-02-21T18:32:06.186Z,101398.00
2019-02-21T18:34:39.068Z,101402.00
2019-02-21T18:37:11.971Z,101411.00
2019-02-21T18:39:44.872Z,101407.00
2019-02-21T18:42:17.902Z,101407.00
2019-02-21T18:44:50.784Z,101403.00
2019-02-21T18:47:23.686Z,101402.00
2019-02-21T18:49:56.643Z,101401.00
2019-02-21T18:52:29.646Z,101413.00
2019-02-21T18:55:03.384Z,101409.00
2019-02-21T18:57:36.501Z,101415.00
2019-02-21T19:00:12.040Z,101411.00
2019-02-21T19:02:46.838Z,101412.00
2019-02-21T19:05:19.800Z,101428.00
2019-02-21T19:08:00.837Z,101410.00
2019-02-21T19:10:27.877Z,101415.00
2019-02-21T19:13:00.783Z,101410.00
2019-02-21T19:15:33.711Z,101414.00
2019-02-21T19:18:06.726Z,101405.00
2019-02-21T19:20:40.836Z,101404.00
2019-02-21T19:23:13.814Z,101409.00
2019-02-21T19:25:46.688Z,101419.00
2019-02-21T19:28:19.674Z,101418.00
2019-02-21T19:31:05.153Z,101409.00
2019-02-21T19:33:38.174Z,101416.00
2019-02-21T19:36:11.173Z,101419.00
2019-02-21T19:38:44.178Z,101416.00
2019-02-21T19:41:17.096Z,101411.00
2019-02-21T19:43:50.262Z,101420.00
2019-02-21T19:46:23.142Z,101426.00
2019-02-21T19:48:56.052Z,101432.00
2019-02-21T19:51:28.919Z,101433.00
2019-02-21T19:54:01.841Z,101437.00
2019-02-21T19:56:34.733Z,101428.00
2019-02-21T19:59:07.942Z,101429.00
2019-02-21T20:01:41.038Z,101431.00
2019-02-21T20:04:13.993Z,101424.00
2019-02-21T20:06:46.878Z,101422.00
2019-02-21T20:09:20.053Z,101424.00
2019-02-21T20:11:53.019Z,101447.00
2019-02-21T20:14:26.034Z,101435.00
2019-02-21T20:16:58.907Z,101437.00
2019-02-21T20:19:31.757Z,101443.00
2019-02-21T20:22:04.815Z,101448.00
2019-02-21T20:24:37.835Z,101445.00
2019-02-21T20:27:10.913Z,101451.00
2019-02-21T20:29:43.831Z,101451.00
2019-02-21T20:32:16.807Z,101451.00
2019-02-21T20:34:49.806Z,101462.00
2019-02-21T20:37:22.761Z,101465.00
2019-02-21T20:39:55.690Z,101459.00
2019-02-21T20:42:31.319Z,101462.00
2019-02-21T20:45:06.065Z,101464.00
2019-02-21T20:47:39.114Z,101464.00
2019-02-21T20:50:12.352Z,101463.00
2019-02-21T20:52:45.341Z,101469.00
2019-02-21T20:55:18.442Z,101479.00
2019-02-21T20:57:51.571Z,101465.00
2019-02-21T21:00:24.445Z,101481.00
2019-02-21T21:02:58.223Z,101480.00
2019-02-21T21:05:31.307Z,101486.00
2019-02-21T21:08:04.312Z,101486.00
2019-02-21T21:10:37.336Z,101493.00
2019-02-21T21:13:10.237Z,101493.00
2019-02-21T21:15:43.269Z,101498.00
2019-02-21T21:18:16.220Z,101503.00
2019-02-21T21:20:49.147Z,101508.00
2019-02-21T21:23:22.108Z,101496.00
2019-02-21T21:25:54.988Z,101498.00
2019-02-21T21:28:27.853Z,101497.00
2019-02-21T21:31:00.864Z,101511.00
2019-02-21T21:33:34.938Z,101505.00
2019-02-21T21:36:08.987Z,101504.00
2019-02-21T21:38:41.855Z,101505.00
2019-02-21T21:41:14.896Z,101516.00
2019-02-21T21:43:47.779Z,101511.00
2019-02-21T21:46:20.630Z,101515.00
2019-02-21T21:48:53.524Z,101510.00
2019-02-21T21:51:26.386Z,101521.00
2019-02-21T21:53:59.276Z,101518.00
2019-02-21T21:56:32.400Z,101518.00
2019-02-21T21:59:05.309Z,101530.00
2019-02-21T22:01:38.361Z,101524.00
2019-02-21T22:04:11.311Z,101531.00
2019-02-21T22:06:44.234Z,101537.00
2019-02-21T22:09:18.225Z,101534.00
2019-02-21T22:11:51.248Z,101543.00
2019-02-21T22:14:24.123Z,101548.00
2019-02-21T22:16:57.062Z,101545.00
2019-02-21T22:19:30.999Z,101543.00
2019-02-21T22:22:05.682Z,101534.00
2019-02-21T22:24:38.605Z,101539.00
2019-02-21T22:27:11.493Z,101536.00
2019-02-21T22:29:44.340Z,101539.00
2019-02-21T22:32:17.264Z,101549.00
2019-02-21T22:34:51.612Z,101541.00
2019-02-21T22:37:24.665Z,101541.00
2019-02-21T22:39:57.577Z,101542.00
2019-02-21T22:42:30.625Z,101553.00
2019-02-21T22:45:05.519Z,101554.00
2019-02-21T22:47:38.540Z,101546.00
2019-02-21T22:50:13.383Z,101549.00
2019-02-21T22:52:46.297Z,101544.00
2019-02-21T22:55:19.242Z,101543.00
2019-02-21T22:57:52.067Z,101533.00
2019-02-21T23:00:58.364Z,101530.00
2019-02-21T23:03:57.605Z,101521.00
2019-02-21T23:07:19.345Z,101523.00
2019-02-21T23:09:52.175Z,101528.00
2019-02-21T23:12:25.129Z,101519.00
2019-02-21T23:14:57.956Z,101525.00
2019-02-21T23:17:30.854Z,101516.00
2019-02-21T23:20:04.948Z,101518.00
2019-02-21T23:22:38.798Z,101524.00
2019-02-21T23:25:11.643Z,101525.00
2019-02-21T23:27:44.633Z,101505.00
2019-02-21T23:30:17.562Z,101512.00
2019-02-21T23:32:50.398Z,101521.00
2019-02-21T23:35:23.240Z,101528.00
2019-02-21T23:37:56.113Z,101528.00
2019-02-21T23:40:29.953Z,101525.00
2019-02-21T23:43:02.839Z,101531.00
2019-02-21T23:45:35.664Z,101531.00
2019-02-21T23:48:08.523Z,101533.00
2019-02-21T23:50:41.374Z,101532.00
2019-02-21T23:53:14.227Z,101542.00
2019-02-21T23:55:47.049Z,101535.00
2019-02-21T23:58:19.901Z,101537.00
